createdAt,value
2023-03-25T00:01:20.949Z,94.42
2023-03-25T00:03:51.488Z,94.90
2023-03-25T00:06:20.451Z,94.19
2023-03-25T00:08:49.131Z,93.23
2023-03-25T00:11:17.733Z,93.03
2023-03-25T00:13:46.139Z,94.49
2023-03-25T00:16:14.521Z,94.42
2023-03-25T00:18:43.234Z,94.54
2023-03-25T00:21:12.671Z,93.24
2023-03-25T00:23:42.338Z,92.60
2023-03-25T00:26:11.671Z,89.51
2023-03-25T00:28:40.627Z,88.85
2023-03-25T00:31:13.770Z,88.78
2023-03-25T00:33:43.133Z,88.56
2023-03-25T00:36:15.495Z,89.42
2023-03-25T00:38:44.189Z,90.43
2023-03-25T00:41:26.812Z,91.11
2023-03-25T00:43:58.043Z,91.50
2023-03-25T00:46:28.418Z,90.55
2023-03-25T00:48:59.317Z,90.41
2023-03-25T00:51:29.518Z,90.40
2023-03-25T00:54:01.231Z,89.91
2023-03-25T00:56:31.240Z,89.32
2023-03-25T00:58:59.639Z,89.66
2023-03-25T01:01:29.575Z,89.39
2023-03-25T01:03:59.906Z,89.14
2023-03-25T01:06:33.989Z,88.04
2023-03-25T01:09:05.835Z,87.67
2023-03-25T01:11:35.943Z,86.72
2023-03-25T01:14:06.905Z,86.45
2023-03-25T01:16:35.420Z,86.00
2023-03-25T01:19:04.235Z,84.33
2023-03-25T01:21:37.541Z,83.90
2023-03-25T01:24:06.975Z,83.25
2023-03-25T01:26:35.535Z,78.94
2023-03-25T01:29:04.069Z,78.56
2023-03-25T01:31:32.446Z,75.32
2023-03-25T01:34:01.590Z,71.48
2023-03-25T01:36:33.181Z,72.58
2023-03-25T01:39:02.394Z,71.36
2023-03-25T01:41:46.431Z,69.07
2023-03-25T01:44:23.660Z,69.40
2023-03-25T01:46:54.525Z,68.37
2023-03-25T01:49:41.660Z,67.71
2023-03-25T01:52:14.885Z,68.84
2023-03-25T01:54:44.375Z,67.78
2023-03-25T01:57:20.426Z,67.29
2023-03-25T01:59:49.754Z,66.83
2023-03-25T02:02:20.194Z,65.84
2023-03-25T02:05:04.818Z,66.86
2023-03-25T02:07:35.643Z,66.92
2023-03-25T02:10:09.184Z,67.03
2023-03-25T02:12:37.797Z,66.35
2023-03-25T02:15:09.373Z,66.23
2023-03-25T02:17:46.380Z,67.11
2023-03-25T02:20:46.368Z,65.71
2023-03-25T02:23:29.095Z,64.20
2023-03-25T02:26:30.750Z,64.18
2023-03-25T02:29:24.906Z,66.91
2023-03-25T02:32:14.969Z,65.01
2023-03-25T02:34:47.473Z,64.17
2023-03-25T02:37:47.753Z,63.87
2023-03-25T02:40:22.375Z,64.32
2023-03-25T02:42:56.934Z,63.40
2023-03-25T02:45:50.941Z,64.55
2023-03-25T02:48:27.081Z,63.58
2023-03-25T02:50:59.066Z,63.75
2023-03-25T02:53:38.793Z,60.65
2023-03-25T02:56:11.910Z,62.20
2023-03-25T02:58:42.850Z,63.65
2023-03-25T03:01:11.250Z,60.16
2023-03-25T03:03:39.782Z,61.65
2023-03-25T03:06:09.380Z,60.81
2023-03-25T03:08:52.704Z,59.42
2023-03-25T03:11:27.014Z,60.44
2023-03-25T03:14:35.532Z,53.46
2023-03-25T03:17:10.193Z,57.95
2023-03-25T03:19:50.326Z,59.84
2023-03-25T03:22:55.066Z,57.30
2023-03-25T03:25:46.864Z,54.97
2023-03-25T03:28:40.781Z,54.48
2023-03-25T03:31:48.551Z,56.13
2023-03-25T03:34:30.135Z,55.32
2023-03-25T03:37:01.856Z,53.51
2023-03-25T03:39:34.818Z,59.28
2023-03-25T03:42:13.072Z,51.48
2023-03-25T03:44:46.651Z,53.24
2023-03-25T03:47:25.331Z,53.46
2023-03-25T03:50:20.029Z,54.94
2023-03-25T03:53:17.588Z,51.92
2023-03-25T03:56:02.727Z,54.13
2023-03-25T03:58:36.169Z,52.19
2023-03-25T04:01:14.060Z,51.34
2023-03-25T04:03:56.571Z,54.02
2023-03-25T04:06:36.428Z,55.55
2023-03-25T04:09:35.587Z,48.60
2023-03-25T04:12:36.420Z,50.90
2023-03-25T04:15:07.261Z,47.69
2023-03-25T04:17:35.666Z,50.46
2023-03-25T04:20:09.967Z,47.43
2023-03-25T04:22:39.430Z,47.18
2023-03-25T04:25:08.523Z,49.60
2023-03-25T04:27:38.779Z,51.58
2023-03-25T04:30:09.181Z,47.97
2023-03-25T04:32:37.648Z,49.22
2023-03-25T04:35:06.255Z,49.63
2023-03-25T04:37:34.814Z,50.70
2023-03-25T04:40:03.147Z,50.14
2023-03-25T04:42:33.788Z,51.75
2023-03-25T04:45:02.304Z,50.14
2023-03-25T04:47:30.833Z,50.60
2023-03-25T04:49:59.213Z,51.88
2023-03-25T04:52:27.574Z,53.18
2023-03-25T04:54:56.533Z,54.16
2023-03-25T04:57:26.757Z,51.81
2023-03-25T04:59:55.088Z,45.38
2023-03-25T05:02:25.007Z,43.85
2023-03-25T05:04:55.228Z,47.41
2023-03-25T05:07:23.634Z,46.77
2023-03-25T05:09:51.966Z,45.71
2023-03-25T05:12:20.308Z,47.04
2023-03-25T05:14:48.649Z,49.07
2023-03-25T05:17:17.008Z,48.49
2023-03-25T05:19:45.552Z,48.48
2023-03-25T05:22:14.026Z,48.67
2023-03-25T05:24:46.080Z,46.94
2023-03-25T05:27:14.416Z,51.61
2023-03-25T05:29:45.514Z,52.01
2023-03-25T05:32:19.518Z,47.52
2023-03-25T05:34:50.101Z,45.63
2023-03-25T05:37:18.646Z,49.26
2023-03-25T05:39:47.173Z,47.79
2023-03-25T05:42:16.197Z,47.10
2023-03-25T05:44:51.953Z,48.58
2023-03-25T05:47:25.656Z,48.59
2023-03-25T05:49:55.270Z,46.65
2023-03-25T05:52:28.396Z,45.23
2023-03-25T05:54:56.856Z,46.13
2023-03-25T05:57:25.275Z,46.32
2023-03-25T05:59:53.602Z,49.24
2023-03-25T06:02:22.015Z,47.83
2023-03-25T06:04:52.251Z,48.13
2023-03-25T06:07:21.188Z,48.19
2023-03-25T06:09:50.764Z,47.40
2023-03-25T06:12:21.641Z,44.98
2023-03-25T06:14:55.103Z,48.48
2023-03-25T06:17:23.851Z,46.83
2023-03-25T06:19:53.183Z,46.72
2023-03-25T06:22:22.977Z,48.23
2023-03-25T06:24:51.437Z,48.35
2023-03-25T06:27:21.433Z,46.85
2023-03-25T06:29:49.825Z,44.50
2023-03-25T06:32:18.176Z,42.37
2023-03-25T06:34:46.704Z,43.39
2023-03-25T06:37:15.054Z,44.38
2023-03-25T06:39:47.256Z,44.89
2023-03-25T06:42:15.768Z,43.39
2023-03-25T06:44:44.140Z,46.87
2023-03-25T06:47:12.559Z,47.02
2023-03-25T06:49:40.956Z,44.45
2023-03-25T06:52:09.421Z,46.32
2023-03-25T06:54:37.812Z,43.49
2023-03-25T06:57:07.200Z,45.47
2023-03-25T06:59:35.642Z,44.78
2023-03-25T07:02:04.262Z,43.09
2023-03-25T07:04:32.682Z,43.57
2023-03-25T07:07:01.216Z,45.04
2023-03-25T07:09:29.586Z,44.87
2023-03-25T07:11:58.093Z,43.80
2023-03-25T07:14:26.568Z,45.65
2023-03-25T07:16:55.009Z,42.47
2023-03-25T07:19:23.763Z,40.43
2023-03-25T07:21:52.125Z,44.84
2023-03-25T07:24:20.508Z,42.47
2023-03-25T07:26:48.982Z,42.34
2023-03-25T07:29:17.362Z,44.59
2023-03-25T07:31:47.579Z,42.63
2023-03-25T07:34:16.019Z,42.97
2023-03-25T07:36:44.384Z,42.73
2023-03-25T07:39:12.837Z,40.00
2023-03-25T07:41:41.358Z,42.53
2023-03-25T07:44:09.734Z,40.84
2023-03-25T07:46:38.190Z,41.46
2023-03-25T07:49:06.618Z,40.45
2023-03-25T07:51:36.029Z,41.92
2023-03-25T07:54:05.201Z,39.67
2023-03-25T07:56:35.376Z,43.23
2023-03-25T07:59:04.279Z,42.40
2023-03-25T08:01:32.930Z,42.51
2023-03-25T08:04:01.449Z,41.38
2023-03-25T08:06:29.853Z,39.78
2023-03-25T08:08:58.271Z,42.86
2023-03-25T08:11:26.641Z,39.71
2023-03-25T08:13:54.979Z,39.68
2023-03-25T08:16:23.478Z,42.31
2023-03-25T08:18:53.808Z,42.21
2023-03-25T08:21:29.316Z,39.76
2023-03-25T08:24:05.527Z,41.78
2023-03-25T08:26:34.862Z,42.64
2023-03-25T08:29:03.634Z,43.32
2023-03-25T08:31:33.819Z,42.27
2023-03-25T08:34:03.269Z,39.21
2023-03-25T08:36:31.978Z,41.74
2023-03-25T08:39:00.342Z,40.86
2023-03-25T08:41:28.831Z,41.74
2023-03-25T08:43:57.169Z,42.02
2023-03-25T08:46:25.698Z,40.39
2023-03-25T08:48:54.743Z,39.61
2023-03-25T08:51:23.737Z,39.28
2023-03-25T08:53:52.130Z,40.25
2023-03-25T08:56:20.495Z,41.10
2023-03-25T08:58:48.887Z,42.47
2023-03-25T09:01:17.252Z,42.12
2023-03-25T09:03:45.622Z,41.04
2023-03-25T09:06:13.995Z,37.91
2023-03-25T09:08:42.369Z,40.35
2023-03-25T09:11:10.845Z,42.00
2023-03-25T09:13:39.226Z,39.24
2023-03-25T09:16:08.382Z,39.20
2023-03-25T09:18:37.769Z,41.97
2023-03-25T09:21:06.763Z,41.57
2023-03-25T09:23:35.352Z,39.06
2023-03-25T09:26:06.114Z,39.36
2023-03-25T09:28:34.548Z,41.00
2023-03-25T09:31:03.042Z,39.67
2023-03-25T09:33:31.564Z,39.03
2023-03-25T09:35:59.971Z,40.35
2023-03-25T09:38:28.677Z,39.98
2023-03-25T09:40:57.350Z,41.87
2023-03-25T09:44:10.878Z,43.54
2023-03-25T09:46:40.935Z,40.56
2023-03-25T09:49:22.369Z,41.30
2023-03-25T09:51:53.914Z,42.54
2023-03-25T09:54:37.202Z,40.39
2023-03-25T09:57:14.759Z,39.49
2023-03-25T09:59:50.576Z,41.22
2023-03-25T10:02:41.339Z,41.47
2023-03-25T10:05:41.011Z,42.17
2023-03-25T10:08:48.315Z,39.85
2023-03-25T10:11:22.334Z,42.38
2023-03-25T10:14:12.918Z,42.01
2023-03-25T10:16:56.321Z,42.81
2023-03-25T10:19:36.942Z,41.11
2023-03-25T10:22:06.839Z,41.49
2023-03-25T10:24:55.189Z,42.05
2023-03-25T10:27:46.502Z,42.38
2023-03-25T10:30:33.814Z,43.06
2023-03-25T10:33:07.438Z,43.25
2023-03-25T10:35:42.429Z,42.33
2023-03-25T10:38:25.149Z,43.36
2023-03-25T10:41:00.694Z,42.50
2023-03-25T10:43:31.743Z,43.54
2023-03-25T10:46:17.946Z,43.34
2023-03-25T10:48:48.300Z,42.44
2023-03-25T10:51:28.430Z,42.99
2023-03-25T10:53:57.408Z,43.23
2023-03-25T10:56:49.060Z,42.93
2023-03-25T11:00:21.816Z,44.15
2023-03-25T11:02:50.518Z,43.11
2023-03-25T11:05:24.514Z,43.28
2023-03-25T11:07:59.885Z,44.39
2023-03-25T11:10:33.476Z,42.87
2023-03-25T11:13:08.589Z,43.07
2023-03-25T11:15:39.817Z,43.70
2023-03-25T11:18:46.651Z,43.89
2023-03-25T11:21:15.812Z,43.84
2023-03-25T11:23:53.636Z,43.04
2023-03-25T11:26:35.442Z,42.82
2023-03-25T11:29:10.522Z,42.96
2023-03-25T11:31:39.554Z,42.34
2023-03-25T11:34:20.746Z,42.83
2023-03-25T11:37:16.811Z,43.32
2023-03-25T11:39:56.237Z,43.48
2023-03-25T11:42:36.735Z,43.65
2023-03-25T11:45:06.896Z,43.89
2023-03-25T11:47:39.162Z,43.63
2023-03-25T11:50:08.950Z,44.00
2023-03-25T11:52:48.262Z,46.30
2023-03-25T11:55:46.504Z,45.90
2023-03-25T11:58:22.637Z,45.46
2023-03-25T12:00:54.559Z,44.86
2023-03-25T12:03:28.637Z,44.53
2023-03-25T12:06:05.136Z,44.31
2023-03-25T12:08:52.935Z,43.95
2023-03-25T12:11:37.936Z,43.82
2023-03-25T12:14:31.990Z,44.19
2023-03-25T12:17:06.081Z,44.33
2023-03-25T12:20:04.204Z,44.34
2023-03-25T12:22:53.952Z,45.78
2023-03-25T12:25:50.010Z,45.22
2023-03-25T12:29:03.835Z,45.92
2023-03-25T12:31:43.732Z,45.48
2023-03-25T12:34:39.752Z,45.39
2023-03-25T12:37:23.025Z,45.97
2023-03-25T12:40:16.370Z,46.21
2023-03-25T12:42:53.573Z,46.22
2023-03-25T12:45:25.390Z,46.60
2023-03-25T12:48:32.395Z,47.09
2023-03-25T12:51:18.641Z,47.51
2023-03-25T12:54:19.403Z,48.53
2023-03-25T12:57:03.046Z,48.73
2023-03-25T12:59:49.055Z,50.20
2023-03-25T13:02:43.272Z,49.21
2023-03-25T13:05:20.782Z,51.71
2023-03-25T13:08:08.636Z,50.82
2023-03-25T13:10:40.709Z,50.41
2023-03-25T13:13:21.519Z,50.21
2023-03-25T13:16:04.939Z,50.54
2023-03-25T13:19:04.582Z,52.37
2023-03-25T13:21:53.595Z,53.98
2023-03-25T13:24:29.406Z,58.67
2023-03-25T13:26:59.797Z,63.96
2023-03-25T13:29:51.269Z,63.33
2023-03-25T13:32:26.713Z,63.43
2023-03-25T13:35:04.683Z,63.78
2023-03-25T13:37:54.057Z,64.72
2023-03-25T13:40:37.791Z,65.10
2023-03-25T13:43:24.529Z,65.68
2023-03-25T13:46:03.862Z,65.16
2023-03-25T13:48:44.533Z,64.89
2023-03-25T13:51:12.945Z,65.36
2023-03-25T13:53:59.879Z,65.90
2023-03-25T13:57:02.483Z,67.41
2023-03-25T13:59:56.078Z,66.57
2023-03-25T14:02:48.589Z,65.16
2023-03-25T14:05:29.463Z,65.27
2023-03-25T14:08:20.286Z,65.25
2023-03-25T14:10:55.669Z,60.50
2023-03-25T14:13:37.622Z,63.25
2023-03-25T14:16:20.155Z,65.19
2023-03-25T14:18:53.497Z,64.87
2023-03-25T14:21:28.341Z,65.03
2023-03-25T14:24:18.975Z,64.94
2023-03-25T14:26:56.448Z,64.02
2023-03-25T14:29:34.455Z,64.49
2023-03-25T14:32:10.598Z,64.61
2023-03-25T14:34:40.646Z,64.90
2023-03-25T14:37:09.050Z,64.51
2023-03-25T14:39:41.043Z,65.67
2023-03-25T14:42:09.566Z,66.21
2023-03-25T14:44:55.260Z,66.17
2023-03-25T14:47:23.771Z,66.37
2023-03-25T14:49:55.037Z,67.48
2023-03-25T14:52:34.791Z,66.54
2023-03-25T14:55:10.668Z,66.38
2023-03-25T14:57:44.868Z,66.12
2023-03-25T15:00:29.431Z,66.00
2023-03-25T15:03:14.377Z,63.69
2023-03-25T15:05:44.195Z,62.70
2023-03-25T15:08:15.814Z,60.94
2023-03-25T15:11:05.208Z,59.01
2023-03-25T15:13:43.488Z,58.97
2023-03-25T15:16:38.104Z,57.82
2023-03-25T15:19:24.338Z,57.05
2023-03-25T15:21:58.944Z,56.94
2023-03-25T15:24:38.427Z,56.18
2023-03-25T15:27:27.696Z,55.63
2023-03-25T15:30:23.377Z,55.03
2023-03-25T15:33:20.732Z,55.80
2023-03-25T15:36:16.326Z,55.19
2023-03-25T15:39:02.854Z,55.30
2023-03-25T15:41:44.770Z,55.76
2023-03-25T15:44:45.006Z,54.98
2023-03-25T15:48:01.207Z,55.38
2023-03-25T15:50:55.985Z,55.01
2023-03-25T15:53:42.890Z,54.95
2023-03-25T15:56:22.864Z,54.48
2023-03-25T15:58:59.451Z,55.15
2023-03-25T16:01:50.724Z,57.92
2023-03-25T16:04:22.729Z,57.39
2023-03-25T16:06:55.386Z,59.20
2023-03-25T16:09:28.723Z,60.87
2023-03-25T16:12:04.580Z,60.27
2023-03-25T16:14:34.929Z,61.88
2023-03-25T16:17:07.434Z,62.19
2023-03-25T16:19:55.579Z,63.42
2023-03-25T16:22:36.646Z,66.25
2023-03-25T16:25:28.470Z,66.95
2023-03-25T16:27:59.115Z,67.37
2023-03-25T16:30:32.042Z,67.72
2023-03-25T16:33:09.675Z,67.54
2023-03-25T16:35:44.854Z,65.89
2023-03-25T16:38:20.296Z,64.12
2023-03-25T16:40:50.436Z,62.63
2023-03-25T16:43:23.343Z,63.98
2023-03-25T16:45:54.265Z,64.32
2023-03-25T16:48:37.223Z,63.55
2023-03-25T16:51:24.011Z,61.91
2023-03-25T16:54:02.012Z,62.62
2023-03-25T16:56:37.604Z,63.17
2023-03-25T16:59:21.450Z,62.46
2023-03-25T17:01:56.411Z,62.74
2023-03-25T17:04:49.237Z,63.40
2023-03-25T17:07:23.471Z,63.76
2023-03-25T17:09:54.244Z,64.73
2023-03-25T17:12:24.964Z,64.00
2023-03-25T17:14:58.053Z,63.51
2023-03-25T17:17:50.553Z,61.02
2023-03-25T17:20:33.556Z,61.70
2023-03-25T17:23:11.560Z,62.52
2023-03-25T17:25:55.904Z,65.41
2023-03-25T17:28:28.194Z,66.25
2023-03-25T17:30:56.919Z,66.17
2023-03-25T17:33:31.031Z,65.48
2023-03-25T17:35:59.640Z,64.76
2023-03-25T17:38:43.102Z,64.63
2023-03-25T17:41:12.563Z,63.39
2023-03-25T17:44:01.766Z,65.82
2023-03-25T17:46:32.362Z,65.49
2023-03-25T17:49:01.234Z,65.26
2023-03-25T17:51:32.228Z,65.17
2023-03-25T17:54:01.514Z,66.84
2023-03-25T17:56:30.292Z,66.63
2023-03-25T17:59:04.197Z,66.43
2023-03-25T18:01:33.549Z,67.16
2023-03-25T18:04:02.120Z,66.59
2023-03-25T18:06:30.533Z,66.72
2023-03-25T18:08:59.257Z,66.99
2023-03-25T18:11:27.651Z,66.57
2023-03-25T18:13:56.300Z,66.53
2023-03-25T18:16:24.849Z,67.14
2023-03-25T18:18:53.242Z,67.55
2023-03-25T18:21:23.429Z,66.53
2023-03-25T18:23:52.119Z,67.73
2023-03-25T18:26:21.043Z,68.79
2023-03-25T18:28:50.346Z,67.88
2023-03-25T18:31:18.905Z,69.28
2023-03-25T18:33:52.520Z,70.04
2023-03-25T18:36:20.906Z,69.94
2023-03-25T18:38:49.850Z,69.91
2023-03-25T18:41:18.443Z,69.10
2023-03-25T18:43:47.049Z,66.09
2023-03-25T18:46:16.782Z,67.50
2023-03-25T18:48:45.240Z,68.76
2023-03-25T18:51:14.758Z,72.47
2023-03-25T18:53:43.267Z,73.26
2023-03-25T18:56:11.928Z,74.21
2023-03-25T18:58:40.344Z,74.09
2023-03-25T19:01:10.846Z,74.43
2023-03-25T19:03:42.203Z,73.65
2023-03-25T19:06:12.988Z,73.11
2023-03-25T19:08:44.452Z,70.34
2023-03-25T19:11:20.921Z,69.77
2023-03-25T19:13:51.292Z,70.58
2023-03-25T19:16:20.296Z,72.18
2023-03-25T19:18:48.838Z,71.30
2023-03-25T19:21:19.690Z,72.95
2023-03-25T19:23:48.491Z,73.27
2023-03-25T19:26:16.868Z,72.80
2023-03-25T19:28:45.334Z,72.38
2023-03-25T19:31:19.665Z,73.87
2023-03-25T19:33:48.091Z,74.44
2023-03-25T19:36:19.842Z,74.45
2023-03-25T19:38:48.333Z,73.61
2023-03-25T19:41:17.359Z,72.84
2023-03-25T19:43:46.190Z,72.29
2023-03-25T19:46:14.589Z,73.18
2023-03-25T19:48:43.004Z,72.89
2023-03-25T19:51:11.466Z,74.22
2023-03-25T19:53:39.815Z,74.83
2023-03-25T19:56:08.427Z,73.25
2023-03-25T19:58:36.787Z,73.60
2023-03-25T20:01:05.300Z,72.81
2023-03-25T20:03:36.446Z,71.04
2023-03-25T20:06:07.464Z,72.31
2023-03-25T20:08:35.834Z,73.29
2023-03-25T20:11:11.229Z,72.95
2023-03-25T20:13:40.170Z,71.60
2023-03-25T20:16:09.313Z,71.13
2023-03-25T20:18:38.043Z,72.08
2023-03-25T20:21:10.578Z,73.49
2023-03-25T20:23:39.020Z,74.84
2023-03-25T20:26:07.701Z,76.19
2023-03-25T20:28:37.065Z,75.70
2023-03-25T20:31:17.419Z,75.36
2023-03-25T20:33:46.134Z,75.18
2023-03-25T20:36:15.142Z,74.98
2023-03-25T20:38:56.020Z,74.24
2023-03-25T20:41:26.426Z,74.70
2023-03-25T20:43:54.795Z,75.31
2023-03-25T20:46:26.239Z,75.33
2023-03-25T20:48:54.673Z,75.95
2023-03-25T20:51:25.051Z,76.68
2023-03-25T20:53:54.485Z,77.21
2023-03-25T20:56:22.868Z,77.67
2023-03-25T20:58:51.422Z,78.12
2023-03-25T21:01:22.107Z,79.00
2023-03-25T21:03:52.797Z,78.41
2023-03-25T21:06:25.405Z,74.17
2023-03-25T21:08:55.640Z,75.22
2023-03-25T21:11:24.759Z,73.64
2023-03-25T21:13:53.200Z,73.90
2023-03-25T21:16:21.880Z,75.28
2023-03-25T21:18:51.248Z,74.05
2023-03-25T21:21:20.133Z,73.61
2023-03-25T21:23:50.107Z,74.12
2023-03-25T21:26:18.713Z,74.23
2023-03-25T21:28:47.033Z,74.80
2023-03-25T21:31:20.454Z,75.53
2023-03-25T21:33:53.793Z,76.35
2023-03-25T21:36:25.491Z,76.92
2023-03-25T21:39:01.288Z,78.76
2023-03-25T21:41:31.532Z,78.57
2023-03-25T21:43:59.913Z,78.72
2023-03-25T21:46:28.408Z,75.31
2023-03-25T21:48:59.387Z,74.43
2023-03-25T21:51:31.308Z,75.29
2023-03-25T21:54:01.181Z,75.11
2023-03-25T21:56:32.183Z,75.31
2023-03-25T21:59:02.674Z,76.75
2023-03-25T22:01:31.715Z,79.09
2023-03-25T22:04:02.257Z,79.65
2023-03-25T22:06:35.899Z,80.72
2023-03-25T22:09:07.439Z,80.42
2023-03-25T22:11:38.487Z,81.35
2023-03-25T22:14:07.670Z,81.03
2023-03-25T22:16:36.698Z,81.37
2023-03-25T22:19:05.824Z,80.25
2023-03-25T22:21:37.896Z,80.36
2023-03-25T22:24:07.732Z,80.27
2023-03-25T22:26:39.541Z,80.22
2023-03-25T22:29:10.205Z,80.70
2023-03-25T22:31:43.697Z,80.90
2023-03-25T22:34:16.056Z,83.02
2023-03-25T22:36:51.043Z,83.75
2023-03-25T22:39:21.245Z,83.48
2023-03-25T22:41:49.739Z,83.36
2023-03-25T22:44:19.195Z,83.19
2023-03-25T22:46:51.479Z,83.70
2023-03-25T22:49:20.968Z,82.88
2023-03-25T22:51:50.030Z,82.73
2023-03-25T22:54:18.749Z,83.66
2023-03-25T22:56:47.260Z,83.85
2023-03-25T22:59:16.760Z,83.62
2023-03-25T23:01:45.211Z,83.71
2023-03-25T23:04:14.305Z,83.01
2023-03-25T23:06:42.774Z,82.76
2023-03-25T23:09:12.577Z,82.34
2023-03-25T23:11:40.959Z,82.25
2023-03-25T23:14:13.921Z,82.98
2023-03-25T23:16:42.607Z,83.82
2023-03-25T23:19:11.140Z,83.05
2023-03-25T23:21:39.569Z,82.03
2023-03-25T23:24:08.676Z,81.66
2023-03-25T23:26:40.168Z,79.77
2023-03-25T23:29:11.913Z,80.61
2023-03-25T23:31:42.462Z,81.47
2023-03-25T23:34:13.833Z,82.56
2023-03-25T23:36:42.378Z,82.43
2023-03-25T23:39:14.541Z,82.29
2023-03-25T23:41:43.447Z,81.99
2023-03-25T23:44:12.294Z,80.71
2023-03-25T23:46:40.781Z,82.31
2023-03-25T23:49:11.592Z,82.73
2023-03-25T23:51:42.921Z,82.82
2023-03-25T23:54:13.452Z,82.84
2023-03-25T23:56:43.261Z,83.42
2023-03-25T23:59:13.053Z,83.31
